Time;durP1;ratioP1;P1;durP2;ratioP2;P2;SDS_P1;SDS_P2;PMS_P1;PMS_P2;Temp;Humidity;BMP_temperature;BMP_pressure;BME280_temperature;BME280_humidity;BME280_pressure;Samples;Min_cycle;Max_cycle;Signal;HPM_P1;HPM_P2
2021/12/31 00:01:19;;;;;;;7.10;6.40;;;;;;;8.70;100.00;100039.66;5072381;28;20279;-60
2021/12/31 00:03:46;;;;;;;7.00;6.40;;;;;;;8.80;100.00;100029.22;5072394;28;20199;-62
2021/12/31 00:06:13;;;;;;;7.20;6.50;;;;;;;8.72;100.00;100024.13;5072317;28;20199;-63
2021/12/31 00:08:40;;;;;;;8.93;6.60;;;;;;;8.78;100.00;100036.16;5072707;28;20200;-62
2021/12/31 00:11:07;;;;;;;7.27;6.57;;;;;;;8.64;100.00;100019.06;5072392;28;20206;-62
2021/12/31 00:13:34;;;;;;;7.23;6.50;;;;;;;8.72;100.00;100050.88;5072496;28;20567;-62
2021/12/31 00:16:01;;;;;;;8.90;6.40;;;;;;;8.71;100.00;100041.38;5072192;28;20192;-61
2021/12/31 00:18:29;;;;;;;8.20;6.93;;;;;;;8.71;100.00;100048.28;5072164;28;20192;-62
2021/12/31 00:20:56;;;;;;;7.30;6.60;;;;;;;8.65;100.00;100046.66;5071997;28;20311;-60
2021/12/31 00:23:25;;;;;;;6.83;6.23;;;;;;;8.69;100.00;100044.91;5072103;28;20204;-61
2021/12/31 00:25:53;;;;;;;7.37;6.53;;;;;;;8.66;100.00;100043.19;5072034;28;20207;-61
2021/12/31 00:28:20;;;;;;;7.20;6.50;;;;;;;8.49;100.00;100010.63;5071961;28;20652;-61
2021/12/31 00:30:52;;;;;;;7.30;6.70;;;;;;;8.65;100.00;100046.66;5071923;28;20834;-61
2021/12/31 00:33:19;;;;;;;7.03;6.40;;;;;;;8.74;100.00;100043.09;5072054;28;20587;-61
2021/12/31 00:35:47;;;;;;;6.83;6.23;;;;;;;8.61;100.00;100024.25;5071696;28;20234;-61
2021/12/31 00:38:15;;;;;;;6.70;6.00;;;;;;;8.50;100.00;100026.13;5071685;28;20188;-60
2021/12/31 00:40:42;;;;;;;6.73;6.10;;;;;;;8.60;100.00;100044.97;5071742;28;20227;-62
2021/12/31 00:43:10;;;;;;;7.03;6.43;;;;;;;8.59;100.00;100038.94;5071557;28;20196;-61
2021/12/31 00:45:40;;;;;;;7.37;6.67;;;;;;;8.59;100.00;100036.38;5071677;28;20254;-61
2021/12/31 00:48:08;;;;;;;7.67;6.97;;;;;;;8.46;100.00;100014.13;5071721;28;20291;-61
2021/12/31 00:50:35;;;;;;;8.30;7.53;;;;;;;8.62;100.00;100038.91;5072025;28;20192;-62
2021/12/31 00:53:04;;;;;;;8.33;6.97;;;;;;;8.61;100.00;100041.53;5071677;28;20204;-61
2021/12/31 00:55:31;;;;;;;7.93;7.23;;;;;;;8.60;100.00;100039.81;5071398;28;20655;-62
2021/12/31 00:57:58;;;;;;;8.60;7.80;;;;;;;8.31;100.00;99996.16;5071692;28;20560;-61
2021/12/31 01:00:25;;;;;;;8.17;7.47;;;;;;;8.46;100.00;100029.66;5071175;28;20310;-61
2021/12/31 01:02:52;;;;;;;8.87;8.03;;;;;;;8.35;100.00;100003.88;5071307;28;20203;-60
2021/12/31 01:05:19;;;;;;;8.23;7.43;;;;;;;8.42;100.00;100027.97;5071265;28;20199;-61
2021/12/31 01:07:47;;;;;;;8.13;7.33;;;;;;;8.33;100.00;100000.47;5071317;28;20698;-61
2021/12/31 01:10:18;;;;;;;8.60;7.80;;;;;;;8.49;100.00;100024.41;5071059;28;20564;-60
2021/12/31 01:12:45;;;;;;;8.27;7.57;;;;;;;8.44;100.00;100026.22;5071099;28;20287;-61
2021/12/31 01:15:20;;;;;;;12.97;8.17;;;;;;;8.49;100.00;100013.22;5071254;28;20642;-62
2021/12/31 01:20:28;;;;;;;9.43;8.43;;;;;;;8.33;100.00;99997.91;5061755;28;20229;-61
2021/12/31 01:22:54;;;;;;;9.30;8.07;;;;;;;8.38;100.00;99998.69;5070956;28;20218;-62
2021/12/31 01:25:23;;;;;;;8.10;7.40;;;;;;;8.46;100.00;99997.75;5070663;28;20202;-62
2021/12/31 01:27:50;;;;;;;9.00;8.10;;;;;;;8.23;100.00;99990.25;5071011;28;20279;-62
2021/12/31 01:30:17;;;;;;;8.93;8.00;;;;;;;8.25;100.00;99997.06;5070830;28;20206;-62
2021/12/31 01:32:45;;;;;;;8.37;7.30;;;;;;;8.18;100.00;100003.22;5070707;28;20202;-61
2021/12/31 01:35:12;;;;;;;8.20;7.50;;;;;;;8.10;100.00;99994.69;5070428;28;20792;-61
2021/12/31 01:37:39;;;;;;;8.60;7.47;;;;;;;8.00;100.00;100004.28;5071076;28;20581;-61
2021/12/31 01:40:08;;;;;;;8.30;7.50;;;;;;;8.11;100.00;99991.22;5070490;28;20215;-61
2021/12/31 01:42:37;;;;;;;8.30;7.40;;;;;;;7.95;100.00;99987.09;5070732;28;20258;-61
2021/12/31 01:45:09;;;;;;;8.60;7.80;;;;;;;7.96;100.00;99991.38;5070540;28;20566;-61
2021/12/31 01:47:46;;;;;;;8.23;7.53;;;;;;;7.84;100.00;99989.78;5070336;28;20206;-61
2021/12/31 01:50:15;;;;;;;7.70;7.00;;;;;;;8.00;100.00;100000.84;5070255;28;20227;-62
2021/12/31 01:52:42;;;;;;;8.50;7.00;;;;;;;8.02;100.00;100002.50;5070515;28;20204;-60
2021/12/31 01:55:11;;;;;;;7.63;6.57;;;;;;;7.93;100.00;99975.91;5070557;28;20588;-60
2021/12/31 01:57:40;;;;;;;10.17;7.23;;;;;;;7.93;100.00;99992.28;5070340;28;20324;-61
2021/12/31 02:00:09;;;;;;;8.23;7.47;;;;;;;7.96;100.00;99992.25;5070116;28;20230;-61
2021/12/31 02:02:37;;;;;;;8.27;7.23;;;;;;;7.91;100.00;99988.84;5070458;28;20704;-62
2021/12/31 02:05:04;;;;;;;7.63;6.93;;;;;;;7.98;100.00;99987.91;5070159;28;20196;-60
2021/12/31 02:07:32;;;;;;;7.27;6.60;;;;;;;7.88;100.00;99975.97;5070328;28;20235;-60
2021/12/31 02:09:59;;;;;;;7.37;6.73;;;;;;;7.93;100.00;99984.50;5070225;28;20198;-60
2021/12/31 02:12:26;;;;;;;7.53;6.80;;;;;;;7.83;100.00;99985.50;5070075;28;20591;-61
2021/12/31 02:14:55;;;;;;;7.60;6.97;;;;;;;7.88;100.00;99986.31;5069977;28;20702;-61
2021/12/31 02:17:23;;;;;;;8.10;7.30;;;;;;;7.71;100.00;99977.84;5069898;28;20210;-61
2021/12/31 02:20:00;;;;;;;7.77;6.97;;;;;;;7.75;100.00;99976.97;5069924;28;20226;-60
2021/12/31 02:22:28;;;;;;;8.60;7.40;;;;;;;7.80;100.00;99974.31;5069871;28;20203;-62
2021/12/31 02:24:56;;;;;;;8.10;7.40;;;;;;;7.74;100.00;99966.63;5070014;28;20667;-62
2021/12/31 02:27:24;;;;;;;8.30;7.47;;;;;;;7.69;100.00;99966.66;5069686;28;20699;-60
2021/12/31 02:29:52;;;;;;;7.93;7.23;;;;;;;7.69;100.00;99974.44;5069869;28;20202;-61
2021/12/31 02:32:19;;;;;;;6.77;6.27;;;;;;;7.58;100.00;99971.94;5069948;28;20224;-62
2021/12/31 02:34:47;;;;;;;7.70;6.93;;;;;;;7.52;100.00;99943.59;5069632;28;20196;-60
2021/12/31 02:37:16;;;;;;;6.87;6.37;;;;;;;7.74;100.00;99990.75;5070044;28;20200;-60
2021/12/31 02:39:44;;;;;;;7.30;6.60;;;;;;;7.56;100.00;99996.09;5069863;28;20718;-61
2021/12/31 02:42:11;;;;;;;7.67;7.07;;;;;;;7.49;100.00;100004.75;5069768;28;20637;-61
2021/12/31 02:44:39;;;;;;;7.87;7.17;;;;;;;7.56;100.00;100020.19;5069776;28;20295;-61
2021/12/31 02:47:06;;;;;;;10.33;7.80;;;;;;;7.56;100.00;100019.34;5069669;28;20199;-62
2021/12/31 02:49:38;;;;;;;12.40;8.47;;;;;;;7.48;100.00;100028.88;5069648;28;20196;-60
2021/12/31 02:52:06;;;;;;;9.30;7.93;;;;;;;7.24;100.00;99999.78;5069850;28;20278;-60
2021/12/31 02:54:38;;;;;;;8.60;7.70;;;;;;;7.29;100.00;100031.59;5069544;28;20192;-62
2021/12/31 02:57:05;;;;;;;9.50;8.03;;;;;;;7.33;100.00;100024.69;5069592;28;20199;-62
2021/12/31 02:59:34;;;;;;;13.30;8.57;;;;;;;7.17;100.00;100003.28;5069642;28;20690;-62
2021/12/31 03:02:02;;;;;;;8.70;7.83;;;;;;;7.41;100.00;100027.22;5069493;28;20198;-61
2021/12/31 03:04:31;;;;;;;8.90;8.10;;;;;;;7.34;100.00;100021.22;5069557;28;20280;-61
2021/12/31 03:06:58;;;;;;;11.33;8.93;;;;;;;7.38;100.00;100027.22;5069339;28;20196;-60
2021/12/31 03:09:26;;;;;;;8.80;7.90;;;;;;;7.39;100.00;100029.81;5071618;28;20204;-61
2021/12/31 03:11:57;;;;;;;8.53;7.73;;;;;;;7.20;100.00;100005.00;5073444;28;20227;-62
2021/12/31 03:14:26;;;;;;;9.20;8.37;;;;;;;7.32;100.00;100038.47;5073440;28;20200;-62
2021/12/31 03:16:53;;;;;;;8.33;7.53;;;;;;;7.19;100.00;100040.28;5073267;28;20658;-61
2021/12/31 03:19:21;;;;;;;8.83;7.93;;;;;;;7.24;100.00;100040.22;5073104;28;20278;-61
2021/12/31 03:21:48;;;;;;;9.00;8.20;;;;;;;7.22;100.00;100040.25;5073497;28;20311;-60
2021/12/31 03:24:15;;;;;;;8.87;8.00;;;;;;;7.18;100.00;100046.31;5073211;28;20196;-62
2021/12/31 03:26:42;;;;;;;9.73;8.43;;;;;;;7.26;100.00;100052.28;5073058;28;20196;-62
2021/12/31 03:29:11;;;;;;;9.00;8.20;;;;;;;7.31;100.00;100051.41;5073167;28;20659;-62
2021/12/31 03:31:38;;;;;;;9.30;8.40;;;;;;;7.18;100.00;100059.22;5072961;28;20227;-61
2021/12/31 03:34:04;;;;;;;10.10;8.50;;;;;;;7.14;100.00;100057.50;5072934;28;20222;-61
2021/12/31 03:36:31;;;;;;;9.37;8.47;;;;;;;7.00;100.00;100051.56;5072683;28;20231;-61
2021/12/31 03:38:58;;;;;;;10.50;8.30;;;;;;;7.00;100.00;100061.06;5073043;28;20283;-62
2021/12/31 03:41:26;;;;;;;8.87;7.97;;;;;;;6.95;100.00;100053.34;5072683;28;20314;-62
2021/12/31 03:43:53;;;;;;;10.50;7.80;;;;;;;7.15;100.00;100068.69;5072959;28;20614;-61
2021/12/31 03:46:22;;;;;;;9.33;7.90;;;;;;;6.97;100.00;100073.97;5072806;28;20192;-62
2021/12/31 03:48:49;;;;;;;8.83;7.93;;;;;;;6.97;100.00;100082.59;5072349;28;20208;-61
2021/12/31 03:51:16;;;;;;;9.37;8.47;;;;;;;6.83;100.00;100077.47;5069540;28;20297;-61
2021/12/31 03:53:43;;;;;;;8.50;7.70;;;;;;;6.78;100.00;100073.19;5072687;28;20291;-62
2021/12/31 03:56:10;;;;;;;7.93;7.13;;;;;;;6.79;100.00;100083.50;5072666;28;20196;-61
2021/12/31 03:58:37;;;;;;;9.07;8.20;;;;;;;6.73;100.00;100057.75;5071986;28;20196;-60
2021/12/31 04:01:04;;;;;;;8.37;7.57;;;;;;;6.76;100.00;100080.09;5070127;28;20244;-62
2021/12/31 04:03:32;;;;;;;8.73;7.93;;;;;;;6.86;100.00;100089.53;5072640;28;20664;-61
2021/12/31 04:05:59;;;;;;;9.00;7.97;;;;;;;6.86;100.00;100092.09;5072378;28;20333;-59
2021/12/31 04:08:27;;;;;;;9.27;8.17;;;;;;;6.82;100.00;100091.25;5071739;28;20196;-61
2021/12/31 04:10:54;;;;;;;8.70;7.90;;;;;;;6.90;100.00;100092.06;5052114;28;20705;-59
2021/12/31 04:13:20;;;;;;;8.93;8.03;;;;;;;6.91;100.00;100087.75;5051939;28;20266;-59
2021/12/31 04:15:47;;;;;;;8.57;7.87;;;;;;;6.88;100.00;100072.31;5069204;28;20230;-59
2021/12/31 04:18:14;;;;;;;8.13;7.33;;;;;;;6.78;100.00;100079.22;5069727;28;20368;-60
2021/12/31 04:20:45;;;;;;;8.83;7.77;;;;;;;6.84;100.00;100075.75;5070418;28;20269;-61
2021/12/31 04:23:24;;;;;;;7.83;6.97;;;;;;;6.83;100.00;100074.03;5070668;28;20235;-61
2021/12/31 04:25:51;;;;;;;8.27;7.50;;;;;;;6.74;100.00;100068.94;5069283;28;20212;-61
2021/12/31 04:28:18;;;;;;;8.50;7.47;;;;;;;6.72;100.00;100080.97;5067314;28;20246;-61
2021/12/31 04:30:45;;;;;;;8.00;7.30;;;;;;;6.68;100.00;100080.13;5070425;28;20224;-61
2021/12/31 04:33:12;;;;;;;8.30;7.47;;;;;;;6.68;100.00;100097.31;5071169;28;20224;-61
2021/12/31 04:35:39;;;;;;;8.47;7.37;;;;;;;6.71;100.00;100093.00;5071244;28;20231;-61
2021/12/31 04:38:08;;;;;;;7.33;6.30;;;;;;;6.75;100.00;100096.44;5070067;28;20249;-61
2021/12/31 04:40:35;;;;;;;8.37;7.57;;;;;;;6.73;100.00;100103.31;5070002;28;20222;-62
2021/12/31 04:43:02;;;;;;;8.37;7.63;;;;;;;6.76;100.00;100100.75;5070566;28;20223;-61
2021/12/31 04:45:29;;;;;;;8.57;7.67;;;;;;;6.80;100.00;100107.59;5069949;28;20728;-61
2021/12/31 04:47:56;;;;;;;7.63;6.93;;;;;;;6.73;100.00;100104.19;5069257;28;20238;-61
2021/12/31 04:50:23;;;;;;;7.80;7.10;;;;;;;6.76;100.00;100111.94;5069436;28;20226;-62
2021/12/31 04:52:50;;;;;;;8.17;7.37;;;;;;;6.67;100.00;100095.59;5068865;28;20215;-61
2021/12/31 04:55:19;;;;;;;8.57;7.43;;;;;;;6.71;100.00;100110.22;5069260;28;20219;-61
2021/12/31 04:57:48;;;;;;;7.43;6.73;;;;;;;6.75;100.00;100122.25;5070341;28;20224;-61
2021/12/31 05:00:15;;;;;;;7.97;7.13;;;;;;;6.72;100.00;100122.25;5070940;28;20635;-60
2021/12/31 05:02:43;;;;;;;9.67;7.13;;;;;;;6.69;100.00;100117.94;5071109;28;20215;-61
2021/12/31 05:05:11;;;;;;;8.30;7.27;;;;;;;6.73;100.00;100124.81;5069499;28;20234;-61
2021/12/31 05:07:38;;;;;;;7.63;6.93;;;;;;;6.72;100.00;100117.09;5068459;28;20233;-61
2021/12/31 05:10:06;;;;;;;8.63;7.73;;;;;;;6.62;100.00;100110.25;5069054;28;20228;-63
2021/12/31 05:12:37;;;;;;;8.50;7.10;;;;;;;6.67;100.00;100123.97;5069190;28;20216;-62
2021/12/31 05:15:06;;;;;;;8.23;7.40;;;;;;;6.74;100.00;100125.69;5069102;28;20216;-62
2021/12/31 05:17:33;;;;;;;7.97;7.17;;;;;;;6.72;100.00;100122.25;5069267;28;20700;-62
2021/12/31 05:20:01;;;;;;;8.13;7.33;;;;;;;6.72;100.00;100130.00;5069055;28;20215;-63
2021/12/31 05:22:28;;;;;;;8.30;7.27;;;;;;;6.80;100.00;100135.97;5068260;28;20223;-62
2021/12/31 05:24:55;;;;;;;11.77;8.17;;;;;;;6.83;100.00;100128.22;5069365;28;20293;-60
2021/12/31 05:27:22;;;;;;;8.77;7.60;;;;;;;6.72;100.00;100132.56;5068831;28;20207;-61
2021/12/31 05:29:50;;;;;;;8.00;7.20;;;;;;;6.76;100.00;100129.13;5069001;28;20231;-61
2021/12/31 05:32:17;;;;;;;8.37;7.57;;;;;;;6.77;100.00;100133.41;5065987;28;20742;-60
2021/12/31 05:34:44;;;;;;;10.13;8.03;;;;;;;6.72;100.00;100127.41;5068352;28;20223;-60
2021/12/31 05:37:11;;;;;;;9.87;7.87;;;;;;;6.69;100.00;100124.81;5068985;28;20234;-62
2021/12/31 05:39:38;;;;;;;8.43;7.67;;;;;;;6.66;100.00;100119.69;5069128;28;20302;-61
2021/12/31 05:42:06;;;;;;;8.97;8.07;;;;;;;6.63;100.00;100122.28;5069260;28;20247;-61
2021/12/31 05:44:33;;;;;;;10.43;8.20;;;;;;;6.43;100.00;100069.03;5070134;28;20312;-62
2021/12/31 05:47:01;;;;;;;8.40;7.60;;;;;;;6.62;100.00;100107.66;5069780;28;20226;-62
2021/12/31 05:49:28;;;;;;;8.77;7.87;;;;;;;6.64;100.00;100124.00;5069923;28;20331;-62
2021/12/31 05:51:56;;;;;;;8.77;7.07;;;;;;;6.70;100.00;100130.00;5068987;28;20273;-63
2021/12/31 05:54:23;;;;;;;9.17;8.27;;;;;;;6.70;100.00;100123.97;5070625;28;20224;-63
2021/12/31 05:56:51;;;;;;;9.63;8.23;;;;;;;6.61;100.00;100095.63;5070834;28;20216;-62
2021/12/31 05:59:18;;;;;;;9.33;8.33;;;;;;;6.77;100.00;100116.19;5070416;28;20255;-61
2021/12/31 06:01:45;;;;;;;10.53;8.57;;;;;;;6.71;100.00;100097.31;5065177;28;20259;-62
2021/12/31 06:04:14;;;;;;;8.67;7.73;;;;;;;6.92;100.00;100116.13;5067669;28;20230;-62
2021/12/31 06:06:41;;;;;;;9.13;8.17;;;;;;;6.96;100.00;100122.16;5067641;28;20285;-63
2021/12/31 06:09:08;;;;;;;10.80;8.53;;;;;;;7.03;100.00;100115.22;5068053;28;20635;-63
2021/12/31 06:11:35;;;;;;;8.20;7.40;;;;;;;7.04;100.00;100115.22;5068207;28;20219;-63
2021/12/31 06:14:04;;;;;;;8.63;7.83;;;;;;;7.01;100.00;100109.22;5066578;28;20299;-62
2021/12/31 06:16:36;;;;;;;9.23;8.33;;;;;;;7.03;100.00;100108.34;5068423;28;20224;-62
2021/12/31 06:19:04;;;;;;;11.93;9.63;;;;;;;7.00;100.00;100112.69;5061082;28;20220;-63
2021/12/31 06:21:33;;;;;;;9.80;8.43;;;;;;;7.07;100.00;100109.19;5064238;28;20227;-63
2021/12/31 06:24:01;;;;;;;11.10;8.80;;;;;;;6.92;100.00;100099.78;5069324;28;20289;-63
2021/12/31 06:26:28;;;;;;;9.93;8.63;;;;;;;6.99;100.00;100117.00;5069835;28;20619;-63
2021/12/31 06:28:55;;;;;;;11.43;10.23;;;;;;;6.89;100.00;100118.72;5070072;28;20817;-63
2021/12/31 06:31:22;;;;;;;12.23;10.07;;;;;;;6.90;100.00;100119.59;5070020;28;20251;-63
2021/12/31 06:33:49;;;;;;;9.90;8.53;;;;;;;6.95;100.00;100120.44;5070132;28;20227;-62
2021/12/31 06:36:16;;;;;;;9.67;8.67;;;;;;;7.03;100.00;100122.97;5069455;28;20239;-62
2021/12/31 06:38:45;;;;;;;8.63;7.80;;;;;;;7.13;100.00;100120.34;5069864;28;20314;-63
2021/12/31 06:41:13;;;;;;;8.80;7.93;;;;;;;7.17;100.00;100122.03;5069312;28;20311;-65
2021/12/31 06:43:41;;;;;;;10.10;7.97;;;;;;;7.22;100.00;100133.19;5074151;28;20211;-64
2021/12/31 06:46:07;;;;;;;8.70;7.87;;;;;;;7.23;100.00;100127.16;5076380;28;20241;-64
2021/12/31 06:48:34;;;;;;;13.10;8.30;;;;;;;7.33;100.00;100133.16;5073458;28;20669;-64
2021/12/31 06:51:01;;;;;;;7.70;7.00;;;;;;;7.39;100.00;100138.28;5075469;28;20301;-64
2021/12/31 06:53:28;;;;;;;8.20;7.40;;;;;;;7.52;100.00;100132.16;5076221;28;20578;-64
2021/12/31 06:55:57;;;;;;;8.07;7.33;;;;;;;7.47;100.00;100135.63;5075979;28;20273;-63
2021/12/31 06:58:24;;;;;;;9.90;7.93;;;;;;;7.58;100.00;100145.03;5074799;28;20795;-63
2021/12/31 07:00:51;;;;;;;7.23;6.60;;;;;;;7.60;100.00;100150.19;5075809;28;20219;-63
2021/12/31 07:03:18;;;;;;;9.03;7.80;;;;;;;7.71;100.00;100155.28;5076231;28;20303;-64
2021/12/31 07:05:45;;;;;;;9.80;6.67;;;;;;;7.88;100.00;100154.31;5076584;28;20581;-64
2021/12/31 07:08:12;;;;;;;9.20;6.53;;;;;;;7.94;100.00;100159.41;5071433;28;20219;-63
2021/12/31 07:10:39;;;;;;;7.30;6.60;;;;;;;7.97;100.00;100154.22;5075160;28;20255;-64
2021/12/31 07:13:11;;;;;;;8.13;7.33;;;;;;;8.10;100.00;100167.91;5074094;28;20211;-64
2021/12/31 07:15:40;;;;;;;10.63;9.07;;;;;;;8.14;100.00;100173.91;5075621;28;20784;-64
2021/12/31 07:18:08;;;;;;;8.37;7.57;;;;;;;8.29;100.00;100177.22;5075144;28;20283;-64
2021/12/31 07:20:35;;;;;;;8.90;7.47;;;;;;;8.33;100.00;100183.25;5074887;28;20641;-65
2021/12/31 07:23:06;;;;;;;7.03;6.43;;;;;;;8.36;100.00;100181.47;5074211;28;20633;-64
2021/12/31 07:25:34;;;;;;;8.13;7.33;;;;;;;8.42;100.00;100180.59;5074413;28;20707;-65
2021/12/31 07:28:01;;;;;;;7.37;6.67;;;;;;;8.45;100.00;100170.22;5074164;28;20216;-63
2021/12/31 07:30:30;;;;;;;6.73;6.13;;;;;;;8.63;100.00;100182.97;5074099;28;20607;-63
2021/12/31 07:32:58;;;;;;;6.77;6.17;;;;;;;8.71;100.00;100175.97;5069329;28;20299;-63
2021/12/31 07:35:25;;;;;;;7.30;6.47;;;;;;;8.79;100.00;100188.84;5072308;28;20231;-62
2021/12/31 07:37:55;;;;;;;7.23;6.53;;;;;;;8.85;100.00;100191.34;5072301;28;20802;-63
2021/12/31 07:40:26;;;;;;;7.77;7.03;;;;;;;8.91;100.00;100198.22;5073644;28;20277;-61
2021/12/31 07:42:54;;;;;;;7.77;6.93;;;;;;;8.99;100.00;100193.78;5073975;28;20238;-62
2021/12/31 07:45:21;;;;;;;7.87;7.10;;;;;;;8.95;100.00;100174.84;5073805;28;20225;-62
2021/12/31 07:47:50;;;;;;;8.33;7.47;;;;;;;9.11;100.00;100191.06;5075390;28;20232;-61
2021/12/31 07:50:17;;;;;;;7.20;6.60;;;;;;;9.30;100.00;100208.06;5073793;28;20337;-61
2021/12/31 07:52:44;;;;;;;8.07;7.33;;;;;;;9.28;100.00;100212.41;5073428;28;20302;-61
2021/12/31 07:55:11;;;;;;;10.53;6.37;;;;;;;9.20;100.00;100210.81;5070426;28;20215;-61
2021/12/31 07:57:38;;;;;;;7.37;6.67;;;;;;;9.20;100.00;100216.84;5070734;28;20216;-61
2021/12/31 08:00:06;;;;;;;6.40;5.90;;;;;;;9.13;100.00;100201.41;5070036;28;20218;-62
2021/12/31 08:02:33;;;;;;;8.63;6.77;;;;;;;9.19;100.00;100209.94;5070918;28;20230;-60
2021/12/31 08:05:02;;;;;;;7.07;6.27;;;;;;;9.19;100.00;100191.81;5070895;28;20245;-60
2021/12/31 08:07:29;;;;;;;8.00;7.27;;;;;;;9.35;100.00;100203.72;5070692;28;20257;-62
2021/12/31 08:09:56;;;;;;;8.07;6.67;;;;;;;9.41;100.00;100203.63;5070052;28;20302;-63
2021/12/31 08:12:23;;;;;;;8.03;6.87;;;;;;;9.52;100.00;100198.28;5070625;28;20291;-63
2021/12/31 08:14:51;;;;;;;7.20;6.47;;;;;;;9.57;100.00;100198.25;5070342;28;20211;-62
2021/12/31 08:17:18;;;;;;;11.27;7.60;;;;;;;9.60;100.00;100203.34;5070037;28;20286;-63
2021/12/31 08:19:45;;;;;;;7.97;7.00;;;;;;;9.70;100.00;100212.75;5070796;28;20282;-64
2021/12/31 08:22:13;;;;;;;12.53;10.27;;;;;;;9.76;100.00;100210.06;5070519;28;20303;-62
2021/12/31 08:24:40;;;;;;;10.03;8.40;;;;;;;9.78;100.00;100216.94;5067660;28;20220;-63
2021/12/31 08:27:07;;;;;;;11.80;8.80;;;;;;;9.90;100.00;100215.91;5070490;28;20212;-63
2021/12/31 08:29:34;;;;;;;11.40;8.17;;;;;;;10.13;100.00;100220.75;5069693;28;20239;-62
2021/12/31 08:32:01;;;;;;;12.63;8.57;;;;;;;10.08;100.00;100218.19;5070537;28;20318;-61
2021/12/31 08:34:28;;;;;;;9.00;8.10;;;;;;;10.12;100.00;100216.44;5070055;28;20238;-62
2021/12/31 08:36:55;;;;;;;11.37;8.67;;;;;;;10.26;100.00;100208.47;5069978;28;20711;-63
2021/12/31 08:39:23;;;;;;;9.50;8.40;;;;;;;10.32;100.00;100209.22;5070241;28;20226;-62
2021/12/31 08:41:50;;;;;;;8.33;7.43;;;;;;;10.49;100.00;100208.94;5070453;28;20227;-63
2021/12/31 08:44:17;;;;;;;8.90;8.00;;;;;;;10.67;100.00;100211.19;5069633;28;20219;-63
2021/12/31 08:46:46;;;;;;;8.17;7.37;;;;;;;10.77;100.00;100219.66;5070865;28;20215;-62
2021/12/31 08:49:13;;;;;;;8.63;7.83;;;;;;;10.68;100.00;100212.03;5070501;28;20231;-62
2021/12/31 08:51:40;;;;;;;9.40;7.73;;;;;;;10.72;100.00;100219.72;5070856;28;20218;-65
2021/12/31 08:54:07;;;;;;;8.60;7.67;;;;;;;10.64;100.00;100219.03;5070347;28;20786;-62
2021/12/31 08:56:35;;;;;;;7.67;6.90;;;;;;;10.61;100.00;100218.25;5069495;28;20206;-60
2021/12/31 08:59:03;;;;;;;7.83;6.90;;;;;;;10.68;100.00;100202.53;5069187;28;20279;-60
2021/12/31 09:01:30;;;;;;;7.97;6.77;;;;;;;10.68;100.00;100194.72;5069630;28;20611;-60
2021/12/31 09:03:57;;;;;;;8.47;6.90;;;;;;;10.63;100.00;100193.94;5069663;28;20226;-61
2021/12/31 09:06:24;;;;;;;6.67;6.07;;;;;;;10.65;100.00;100194.78;5068481;28;20254;-61
2021/12/31 09:08:51;;;;;;;7.47;6.43;;;;;;;10.68;100.00;100189.53;5069974;28;20287;-61
2021/12/31 09:11:18;;;;;;;7.23;6.40;;;;;;;10.75;100.00;100183.34;5069997;28;20196;-61
2021/12/31 09:13:47;;;;;;;9.53;8.53;;;;;;;10.81;100.00;100172.00;5069355;28;20192;-61
2021/12/31 09:16:15;;;;;;;7.67;6.93;;;;;;;10.79;100.00;100168.56;5069537;28;20199;-61
2021/12/31 09:18:41;;;;;;;6.30;5.70;;;;;;;10.68;100.00;100145.41;5069417;28;20245;-61
2021/12/31 09:21:08;;;;;;;6.43;5.93;;;;;;;10.73;100.00;100163.47;5061037;28;20221;-62
2021/12/31 09:23:35;;;;;;;6.33;5.83;;;;;;;10.80;100.00;100172.88;5065990;28;20315;-62
2021/12/31 09:26:02;;;;;;;6.33;5.73;;;;;;;10.77;100.00;100158.19;5068306;28;20215;-63
2021/12/31 09:28:29;;;;;;;6.37;5.60;;;;;;;10.82;100.00;100150.34;5069058;28;20216;-63
2021/12/31 09:31:01;;;;;;;5.50;5.10;;;;;;;10.74;100.00;100139.22;5068858;28;20310;-63
2021/12/31 09:33:29;;;;;;;5.70;5.20;;;;;;;10.71;100.00;100142.75;5052199;28;20243;-62
2021/12/31 09:35:56;;;;;;;5.53;5.03;;;;;;;10.74;100.00;100134.88;5052470;28;20318;-62
2021/12/31 09:38:23;;;;;;;5.13;4.73;;;;;;;10.81;100.00;100138.22;5063881;28;20307;-61
2021/12/31 09:40:49;;;;;;;5.67;5.17;;;;;;;10.53;100.00;100093.78;5069087;28;20220;-61
2021/12/31 09:43:16;;;;;;;5.03;4.63;;;;;;;10.83;100.00;100129.53;5069681;28;20260;-62
2021/12/31 09:45:45;;;;;;;5.90;5.07;;;;;;;10.91;100.00;100117.25;5068889;28;20607;-60
2021/12/31 09:48:15;;;;;;;6.30;5.50;;;;;;;10.93;100.00;100104.22;5069525;28;20226;-62
2021/12/31 09:50:45;;;;;;;5.20;4.80;;;;;;;10.99;100.00;100109.28;5068190;28;20226;-62
2021/12/31 09:53:13;;;;;;;5.80;4.87;;;;;;;11.06;100.00;100102.22;5069025;28;20192;-60
2021/12/31 09:55:42;;;;;;;5.20;4.80;;;;;;;11.08;100.00;100103.88;5068368;28;20307;-62
2021/12/31 09:58:10;;;;;;;4.87;4.53;;;;;;;11.15;100.00;100100.28;5069404;28;20208;-63
2021/12/31 10:00:41;;;;;;;4.87;4.57;;;;;;;11.17;100.00;100097.66;5067915;28;20200;-63
2021/12/31 10:03:14;;;;;;;5.63;5.13;;;;;;;11.20;100.00;100092.38;5066717;28;20219;-63
2021/12/31 10:05:42;;;;;;;5.07;4.67;;;;;;;11.23;100.00;100089.72;5066193;28;20194;-63
2021/12/31 10:08:20;;;;;;;4.80;4.43;;;;;;;11.26;100.00;100082.72;5068959;28;20196;-65
2021/12/31 10:11:07;;;;;;;5.77;4.97;;;;;;;11.10;100.00;100057.09;5067992;28;20659;-62
2021/12/31 10:13:36;;;;;;;5.67;4.80;;;;;;;11.12;100.00;100060.50;5066257;28;20199;-63
2021/12/31 10:16:03;;;;;;;6.30;4.80;;;;;;;11.18;100.00;100053.41;5068654;28;20199;-63
2021/12/31 10:18:33;;;;;;;4.80;4.37;;;;;;;11.24;100.00;100062.84;5068061;28;20199;-66
2021/12/31 10:21:01;;;;;;;4.60;4.20;;;;;;;11.16;100.00;100054.38;5068758;28;20231;-62
2021/12/31 10:23:28;;;;;;;7.37;5.00;;;;;;;11.26;100.00;100055.88;5069500;28;20307;-62
2021/12/31 10:26:11;;;;;;;5.30;4.80;;;;;;;11.39;100.00;100067.69;5068927;28;20191;-61
2021/12/31 10:28:51;;;;;;;5.40;5.00;;;;;;;11.41;100.00;100047.69;5067314;28;20282;-61
2021/12/31 10:31:19;;;;;;;5.50;5.10;;;;;;;11.57;100.00;100061.19;5067669;28;20253;-63
2021/12/31 10:33:49;;;;;;;5.70;4.87;;;;;;;11.58;100.00;100057.69;5069309;28;20192;-63
2021/12/31 10:36:32;;;;;;;5.20;4.70;;;;;;;11.67;99.76;100051.41;5067091;28;20254;-63
2021/12/31 10:39:00;;;;;;;6.13;5.63;;;;;;;11.69;99.51;100049.63;5067650;28;20192;-62
2021/12/31 10:41:29;;;;;;;5.33;4.93;;;;;;;11.57;99.94;100038.66;5069252;28;20575;-64
2021/12/31 10:43:59;;;;;;;6.93;5.17;;;;;;;11.66;99.64;100042.75;5066544;28;20216;-60
2021/12/31 10:46:26;;;;;;;5.60;5.10;;;;;;;11.67;100.00;100028.00;5068725;28;20207;-60
2021/12/31 10:49:00;;;;;;;5.47;5.07;;;;;;;11.73;100.00;100033.94;5069353;28;20287;-59
2021/12/31 10:51:41;;;;;;;5.60;5.10;;;;;;;11.73;98.66;100035.69;5068548;28;20198;-62
2021/12/31 10:54:31;;;;;;;5.77;5.27;;;;;;;11.76;98.12;100035.63;5066361;28;20245;-62
2021/12/31 10:56:59;;;;;;;6.00;5.40;;;;;;;11.74;98.10;100038.22;5064342;28;20211;-61
2021/12/31 10:59:28;;;;;;;6.30;5.80;;;;;;;11.63;99.02;100028.09;5066157;28;20313;-61
2021/12/31 11:01:55;;;;;;;7.70;6.00;;;;;;;11.67;99.66;100030.63;5066997;28;20254;-63
2021/12/31 11:04:26;;;;;;;6.90;6.20;;;;;;;11.70;100.00;100021.00;5068987;28;20199;-62
2021/12/31 11:06:53;;;;;;;7.63;6.93;;;;;;;11.58;100.00;100024.75;5067381;28;20556;-63
2021/12/31 11:09:25;;;;;;;5.93;5.40;;;;;;;11.57;100.00;100030.00;5069353;28;20188;-63
2021/12/31 11:11:53;;;;;;;6.03;5.53;;;;;;;11.61;100.00;100010.84;5066525;28;20196;-64
2021/12/31 11:14:21;;;;;;;4.80;4.50;;;;;;;11.54;100.00;100007.53;5069120;28;20188;-63
2021/12/31 11:16:48;;;;;;;4.40;4.10;;;;;;;11.52;100.00;100016.25;5068948;28;20188;-62
2021/12/31 11:19:16;;;;;;;5.00;4.60;;;;;;;11.61;100.00;100016.03;5064710;28;20196;-62
2021/12/31 11:21:51;;;;;;;4.70;4.27;;;;;;;11.64;100.00;100014.19;5064867;28;20215;-62
2021/12/31 11:24:32;;;;;;;5.00;4.43;;;;;;;11.56;100.00;100003.13;5062223;28;20277;-63
2021/12/31 11:27:00;;;;;;;4.93;4.17;;;;;;;11.62;100.00;100012.53;5063486;28;20606;-63
2021/12/31 11:29:36;;;;;;;4.50;4.20;;;;;;;11.61;100.00;100009.09;5067374;28;20210;-63
2021/12/31 11:32:05;;;;;;;7.70;4.60;;;;;;;11.64;100.00;100001.19;5069811;28;20699;-63